sensor_id;sensor_type;location;lat;lon;timestamp;P1;durP1;ratioP1;P2;durP2;ratioP2
23300;SDS011;11819;51.394;12.340;2023-07-29T00:00:45;3.47;;;2.30;;
23300;SDS011;11819;51.394;12.340;2023-07-29T00:03:11;3.25;;;2.50;;
23300;SDS011;11819;51.394;12.340;2023-07-29T00:05:37;4.18;;;2.40;;
23300;SDS011;11819;51.394;12.340;2023-07-29T00:08:05;3.70;;;2.58;;
23300;SDS011;11819;51.394;12.340;2023-07-29T00:10:31;2.47;;;2.00;;
23300;SDS011;11819;51.394;12.340;2023-07-29T00:12:57;2.75;;;2.45;;
23300;SDS011;11819;51.394;12.340;2023-07-29T00:15:23;3.92;;;2.30;;
23300;SDS011;11819;51.394;12.340;2023-07-29T00:17:49;3.22;;;2.40;;
23300;SDS011;11819;51.394;12.340;2023-07-29T00:20:16;3.35;;;2.42;;
23300;SDS011;11819;51.394;12.340;2023-07-29T00:22:41;3.55;;;2.42;;
23300;SDS011;11819;51.394;12.340;2023-07-29T00:25:07;3.95;;;2.35;;
23300;SDS011;11819;51.394;12.340;2023-07-29T00:27:33;4.80;;;2.47;;
23300;SDS011;11819;51.394;12.340;2023-07-29T00:29:59;4.32;;;2.55;;
23300;SDS011;11819;51.394;12.340;2023-07-29T00:32:27;2.60;;;2.40;;
23300;SDS011;11819;51.394;12.340;2023-07-29T00:34:54;4.28;;;2.65;;
23300;SDS011;11819;51.394;12.340;2023-07-29T00:37:20;3.80;;;2.38;;
23300;SDS011;11819;51.394;12.340;2023-07-29T00:39:45;3.58;;;2.55;;
23300;SDS011;11819;51.394;12.340;2023-07-29T00:42:11;3.67;;;2.47;;
23300;SDS011;11819;51.394;12.340;2023-07-29T00:44:37;3.47;;;2.67;;
23300;SDS011;11819;51.394;12.340;2023-07-29T00:47:03;4.30;;;2.90;;
23300;SDS011;11819;51.394;12.340;2023-07-29T00:49:30;4.45;;;3.00;;
23300;SDS011;11819;51.394;12.340;2023-07-29T00:51:57;4.05;;;2.58;;
23300;SDS011;11819;51.394;12.340;2023-07-29T00:54:25;5.05;;;2.90;;
23300;SDS011;11819;51.394;12.340;2023-07-29T00:56:51;3.53;;;2.78;;
23300;SDS011;11819;51.394;12.340;2023-07-29T00:59:18;3.97;;;3.08;;
23300;SDS011;11819;51.394;12.340;2023-07-29T01:01:44;5.32;;;2.78;;
23300;SDS011;11819;51.394;12.340;2023-07-29T01:04:09;5.65;;;3.20;;
23300;SDS011;11819;51.394;12.340;2023-07-29T01:06:46;4.05;;;3.10;;
23300;SDS011;11819;51.394;12.340;2023-07-29T01:10:01;4.00;;;3.28;;
23300;SDS011;11819;51.394;12.340;2023-07-29T01:17:43;4.38;;;3.05;;
23300;SDS011;11819;51.394;12.340;2023-07-29T01:20:16;4.57;;;3.00;;
23300;SDS011;11819;51.394;12.340;2023-07-29T01:22:46;3.63;;;2.72;;
23300;SDS011;11819;51.394;12.340;2023-07-29T01:25:13;5.47;;;2.92;;
23300;SDS011;11819;51.394;12.340;2023-07-29T01:27:39;3.63;;;3.00;;
23300;SDS011;11819;51.394;12.340;2023-07-29T01:30:07;4.70;;;3.10;;
23300;SDS011;11819;51.394;12.340;2023-07-29T01:35:28;4.10;;;2.78;;
23300;SDS011;11819;51.394;12.340;2023-07-29T01:38:18;3.40;;;2.63;;
23300;SDS011;11819;51.394;12.340;2023-07-29T01:40:53;3.58;;;2.70;;
23300;SDS011;11819;51.394;12.340;2023-07-29T01:43:23;5.13;;;3.10;;
23300;SDS011;11819;51.394;12.340;2023-07-29T01:45:52;3.80;;;2.80;;
23300;SDS011;11819;51.394;12.340;2023-07-29T01:48:18;3.53;;;2.53;;
23300;SDS011;11819;51.394;12.340;2023-07-29T01:50:43;3.55;;;2.72;;
23300;SDS011;11819;51.394;12.340;2023-07-29T01:53:09;3.72;;;3.05;;
23300;SDS011;11819;51.394;12.340;2023-07-29T01:55:34;3.63;;;3.08;;
23300;SDS011;11819;51.394;12.340;2023-07-29T01:58:00;5.20;;;3.10;;
23300;SDS011;11819;51.394;12.340;2023-07-29T02:00:27;5.03;;;2.90;;
23300;SDS011;11819;51.394;12.340;2023-07-29T02:02:55;3.10;;;2.55;;
23300;SDS011;11819;51.394;12.340;2023-07-29T02:05:21;3.67;;;2.72;;
23300;SDS011;11819;51.394;12.340;2023-07-29T02:07:46;3.55;;;2.60;;
23300;SDS011;11819;51.394;12.340;2023-07-29T02:10:13;4.65;;;3.22;;
23300;SDS011;11819;51.394;12.340;2023-07-29T02:12:40;4.05;;;3.15;;
23300;SDS011;11819;51.394;12.340;2023-07-29T02:15:06;5.70;;;3.00;;
23300;SDS011;11819;51.394;12.340;2023-07-29T02:17:32;3.97;;;3.00;;
23300;SDS011;11819;51.394;12.340;2023-07-29T02:19:58;4.07;;;2.50;;
23300;SDS011;11819;51.394;12.340;2023-07-29T02:22:25;3.40;;;2.80;;
23300;SDS011;11819;51.394;12.340;2023-07-29T02:24:51;5.20;;;3.10;;
23300;SDS011;11819;51.394;12.340;2023-07-29T02:27:17;5.13;;;3.17;;
23300;SDS011;11819;51.394;12.340;2023-07-29T02:29:43;4.15;;;2.80;;
23300;SDS011;11819;51.394;12.340;2023-07-29T02:32:09;4.03;;;2.97;;
23300;SDS011;11819;51.394;12.340;2023-07-29T02:34:35;4.38;;;3.00;;
23300;SDS011;11819;51.394;12.340;2023-07-29T02:37:01;4.00;;;3.10;;
23300;SDS011;11819;51.394;12.340;2023-07-29T02:39:26;3.78;;;2.75;;
23300;SDS011;11819;51.394;12.340;2023-07-29T02:41:52;3.55;;;2.85;;
23300;SDS011;11819;51.394;12.340;2023-07-29T02:44:18;3.72;;;2.60;;
23300;SDS011;11819;51.394;12.340;2023-07-29T02:46:45;4.68;;;3.20;;
23300;SDS011;11819;51.394;12.340;2023-07-29T02:49:11;4.00;;;2.90;;
23300;SDS011;11819;51.394;12.340;2023-07-29T02:51:37;4.00;;;2.90;;
23300;SDS011;11819;51.394;12.340;2023-07-29T02:54:03;3.28;;;2.70;;
23300;SDS011;11819;51.394;12.340;2023-07-29T02:56:30;5.25;;;3.10;;
23300;SDS011;11819;51.394;12.340;2023-07-29T02:58:56;6.30;;;3.13;;
23300;SDS011;11819;51.394;12.340;2023-07-29T03:01:22;4.65;;;3.35;;
23300;SDS011;11819;51.394;12.340;2023-07-29T03:03:50;4.50;;;3.20;;
23300;SDS011;11819;51.394;12.340;2023-07-29T03:06:16;4.38;;;2.83;;
23300;SDS011;11819;51.394;12.340;2023-07-29T03:08:42;5.30;;;3.10;;
23300;SDS011;11819;51.394;12.340;2023-07-29T03:11:12;4.22;;;2.90;;
23300;SDS011;11819;51.394;12.340;2023-07-29T03:13:39;5.20;;;3.08;;
23300;SDS011;11819;51.394;12.340;2023-07-29T03:16:05;4.30;;;3.20;;
23300;SDS011;11819;51.394;12.340;2023-07-29T03:18:42;4.85;;;3.22;;
23300;SDS011;11819;51.394;12.340;2023-07-29T03:21:10;4.78;;;2.88;;
23300;SDS011;11819;51.394;12.340;2023-07-29T03:23:36;4.50;;;2.97;;
23300;SDS011;11819;51.394;12.340;2023-07-29T03:26:03;3.97;;;3.08;;
23300;SDS011;11819;51.394;12.340;2023-07-29T03:28:35;4.90;;;3.83;;
23300;SDS011;11819;51.394;12.340;2023-07-29T03:31:05;4.28;;;3.20;;
23300;SDS011;11819;51.394;12.340;2023-07-29T03:33:32;4.15;;;3.10;;
23300;SDS011;11819;51.394;12.340;2023-07-29T03:35:59;3.80;;;2.80;;
23300;SDS011;11819;51.394;12.340;2023-07-29T03:38:25;4.50;;;3.38;;
23300;SDS011;11819;51.394;12.340;2023-07-29T03:40:53;4.00;;;2.88;;
23300;SDS011;11819;51.394;12.340;2023-07-29T03:43:18;4.97;;;3.10;;
23300;SDS011;11819;51.394;12.340;2023-07-29T03:45:45;3.92;;;2.92;;
23300;SDS011;11819;51.394;12.340;2023-07-29T03:48:11;5.32;;;3.47;;
23300;SDS011;11819;51.394;12.340;2023-07-29T03:50:38;4.53;;;3.13;;
23300;SDS011;11819;51.394;12.340;2023-07-29T03:53:04;5.60;;;3.42;;
23300;SDS011;11819;51.394;12.340;2023-07-29T03:55:31;5.65;;;3.50;;
23300;SDS011;11819;51.394;12.340;2023-07-29T03:57:59;4.75;;;3.10;;
23300;SDS011;11819;51.394;12.340;2023-07-29T04:00:26;5.35;;;3.60;;
23300;SDS011;11819;51.394;12.340;2023-07-29T04:02:52;4.88;;;3.45;;
23300;SDS011;11819;51.394;12.340;2023-07-29T04:05:19;4.03;;;3.22;;
23300;SDS011;11819;51.394;12.340;2023-07-29T04:07:45;5.22;;;3.22;;
23300;SDS011;11819;51.394;12.340;2023-07-29T04:10:11;4.25;;;3.28;;
23300;SDS011;11819;51.394;12.340;2023-07-29T04:12:38;4.95;;;3.80;;
23300;SDS011;11819;51.394;12.340;2023-07-29T04:15:04;4.95;;;3.50;;
23300;SDS011;11819;51.394;12.340;2023-07-29T04:17:30;4.80;;;3.38;;
23300;SDS011;11819;51.394;12.340;2023-07-29T04:19:56;5.20;;;3.63;;
23300;SDS011;11819;51.394;12.340;2023-07-29T04:22:27;5.30;;;3.78;;
23300;SDS011;11819;51.394;12.340;2023-07-29T04:24:53;5.00;;;3.58;;
23300;SDS011;11819;51.394;12.340;2023-07-29T04:27:19;4.43;;;3.10;;
23300;SDS011;11819;51.394;12.340;2023-07-29T04:29:45;4.72;;;3.15;;
23300;SDS011;11819;51.394;12.340;2023-07-29T04:32:10;4.53;;;3.20;;
23300;SDS011;11819;51.394;12.340;2023-07-29T04:34:36;4.88;;;3.45;;
23300;SDS011;11819;51.394;12.340;2023-07-29T04:37:01;3.92;;;3.42;;
23300;SDS011;11819;51.394;12.340;2023-07-29T04:39:27;5.55;;;3.40;;
23300;SDS011;11819;51.394;12.340;2023-07-29T04:41:53;4.38;;;3.70;;
23300;SDS011;11819;51.394;12.340;2023-07-29T04:44:19;4.40;;;3.50;;
23300;SDS011;11819;51.394;12.340;2023-07-29T04:46:46;4.68;;;3.60;;
23300;SDS011;11819;51.394;12.340;2023-07-29T04:49:13;5.75;;;3.40;;
23300;SDS011;11819;51.394;12.340;2023-07-29T04:51:39;4.68;;;3.40;;
23300;SDS011;11819;51.394;12.340;2023-07-29T04:54:04;5.38;;;3.55;;
23300;SDS011;11819;51.394;12.340;2023-07-29T04:56:30;4.63;;;3.63;;
23300;SDS011;11819;51.394;12.340;2023-07-29T04:58:56;4.75;;;3.50;;
23300;SDS011;11819;51.394;12.340;2023-07-29T05:01:22;5.60;;;4.55;;
23300;SDS011;11819;51.394;12.340;2023-07-29T05:03:48;6.25;;;4.30;;
23300;SDS011;11819;51.394;12.340;2023-07-29T05:06:13;8.20;;;4.38;;
23300;SDS011;11819;51.394;12.340;2023-07-29T05:08:39;4.70;;;3.72;;
23300;SDS011;11819;51.394;12.340;2023-07-29T05:11:05;5.55;;;3.97;;
23300;SDS011;11819;51.394;12.340;2023-07-29T05:13:30;5.85;;;3.92;;
23300;SDS011;11819;51.394;12.340;2023-07-29T05:15:56;4.10;;;3.38;;
23300;SDS011;11819;51.394;12.340;2023-07-29T05:18:22;5.28;;;3.78;;
23300;SDS011;11819;51.394;12.340;2023-07-29T05:20:48;4.43;;;3.65;;
23300;SDS011;11819;51.394;12.340;2023-07-29T05:23:14;4.82;;;3.45;;
23300;SDS011;11819;51.394;12.340;2023-07-29T05:25:40;4.57;;;3.20;;
23300;SDS011;11819;51.394;12.340;2023-07-29T05:28:06;5.25;;;4.05;;
23300;SDS011;11819;51.394;12.340;2023-07-29T05:30:32;5.72;;;3.50;;
23300;SDS011;11819;51.394;12.340;2023-07-29T05:33:02;5.50;;;3.65;;
23300;SDS011;11819;51.394;12.340;2023-07-29T05:35:28;5.25;;;3.88;;
23300;SDS011;11819;51.394;12.340;2023-07-29T05:37:54;5.05;;;3.60;;
23300;SDS011;11819;51.394;12.340;2023-07-29T05:40:19;5.57;;;3.67;;
23300;SDS011;11819;51.394;12.340;2023-07-29T05:42:45;5.20;;;3.70;;
23300;SDS011;11819;51.394;12.340;2023-07-29T05:45:11;5.85;;;3.65;;
23300;SDS011;11819;51.394;12.340;2023-07-29T05:47:37;5.15;;;3.28;;
23300;SDS011;11819;51.394;12.340;2023-07-29T05:50:03;5.22;;;3.50;;
23300;SDS011;11819;51.394;12.340;2023-07-29T05:52:32;4.97;;;3.53;;
23300;SDS011;11819;51.394;12.340;2023-07-29T05:54:58;5.90;;;3.88;;
23300;SDS011;11819;51.394;12.340;2023-07-29T05:57:24;4.88;;;3.88;;
23300;SDS011;11819;51.394;12.340;2023-07-29T05:59:49;4.43;;;3.50;;
23300;SDS011;11819;51.394;12.340;2023-07-29T06:02:15;5.82;;;3.90;;
23300;SDS011;11819;51.394;12.340;2023-07-29T06:04:41;5.22;;;3.67;;
23300;SDS011;11819;51.394;12.340;2023-07-29T06:07:06;4.43;;;3.40;;
23300;SDS011;11819;51.394;12.340;2023-07-29T06:09:33;5.70;;;4.13;;
23300;SDS011;11819;51.394;12.340;2023-07-29T06:11:59;3.85;;;3.35;;
23300;SDS011;11819;51.394;12.340;2023-07-29T06:14:24;4.85;;;3.72;;
23300;SDS011;11819;51.394;12.340;2023-07-29T06:16:50;5.18;;;3.22;;
23300;SDS011;11819;51.394;12.340;2023-07-29T06:19:18;5.25;;;3.90;;
23300;SDS011;11819;51.394;12.340;2023-07-29T06:21:45;4.43;;;3.63;;
23300;SDS011;11819;51.394;12.340;2023-07-29T06:24:13;4.85;;;3.35;;
23300;SDS011;11819;51.394;12.340;2023-07-29T06:26:39;4.28;;;3.33;;
23300;SDS011;11819;51.394;12.340;2023-07-29T06:29:05;4.07;;;3.33;;
23300;SDS011;11819;51.394;12.340;2023-07-29T06:31:30;4.40;;;3.35;;
23300;SDS011;11819;51.394;12.340;2023-07-29T06:33:58;5.43;;;3.70;;
23300;SDS011;11819;51.394;12.340;2023-07-29T06:36:24;6.25;;;4.03;;
23300;SDS011;11819;51.394;12.340;2023-07-29T06:38:51;5.97;;;3.60;;
23300;SDS011;11819;51.394;12.340;2023-07-29T06:41:16;5.50;;;3.88;;
23300;SDS011;11819;51.394;12.340;2023-07-29T06:43:43;4.45;;;3.47;;
23300;SDS011;11819;51.394;12.340;2023-07-29T06:46:09;4.65;;;3.67;;
23300;SDS011;11819;51.394;12.340;2023-07-29T06:48:34;4.85;;;3.72;;
23300;SDS011;11819;51.394;12.340;2023-07-29T06:51:02;5.15;;;4.00;;
23300;SDS011;11819;51.394;12.340;2023-07-29T06:53:28;5.00;;;4.10;;
23300;SDS011;11819;51.394;12.340;2023-07-29T06:55:55;4.35;;;3.67;;
23300;SDS011;11819;51.394;12.340;2023-07-29T06:58:21;4.88;;;3.53;;
23300;SDS011;11819;51.394;12.340;2023-07-29T07:00:48;6.07;;;3.95;;
23300;SDS011;11819;51.394;12.340;2023-07-29T07:03:14;7.55;;;3.90;;
23300;SDS011;11819;51.394;12.340;2023-07-29T07:05:40;5.00;;;3.50;;
23300;SDS011;11819;51.394;12.340;2023-07-29T07:08:05;6.00;;;5.15;;
23300;SDS011;11819;51.394;12.340;2023-07-29T07:10:31;4.85;;;3.63;;
23300;SDS011;11819;51.394;12.340;2023-07-29T07:12:59;4.70;;;3.20;;
23300;SDS011;11819;51.394;12.340;2023-07-29T07:15:24;5.85;;;3.55;;
23300;SDS011;11819;51.394;12.340;2023-07-29T07:17:50;4.65;;;3.60;;
23300;SDS011;11819;51.394;12.340;2023-07-29T07:20:16;4.10;;;3.35;;
23300;SDS011;11819;51.394;12.340;2023-07-29T07:22:42;4.53;;;3.38;;
23300;SDS011;11819;51.394;12.340;2023-07-29T07:25:08;4.75;;;3.50;;
23300;SDS011;11819;51.394;12.340;2023-07-29T07:27:35;6.57;;;3.55;;
23300;SDS011;11819;51.394;12.340;2023-07-29T07:30:03;4.18;;;3.53;;
23300;SDS011;11819;51.394;12.340;2023-07-29T07:32:29;5.57;;;3.70;;
23300;SDS011;11819;51.394;12.340;2023-07-29T07:34:55;4.93;;;3.80;;
23300;SDS011;11819;51.394;12.340;2023-07-29T07:37:21;4.50;;;3.33;;
23300;SDS011;11819;51.394;12.340;2023-07-29T07:39:47;3.90;;;3.13;;
23300;SDS011;11819;51.394;12.340;2023-07-29T07:42:13;4.80;;;3.42;;
23300;SDS011;11819;51.394;12.340;2023-07-29T07:44:40;6.07;;;3.88;;
23300;SDS011;11819;51.394;12.340;2023-07-29T07:47:05;6.28;;;3.42;;
23300;SDS011;11819;51.394;12.340;2023-07-29T07:49:31;3.78;;;3.08;;
23300;SDS011;11819;51.394;12.340;2023-07-29T07:51:57;4.22;;;3.42;;
23300;SDS011;11819;51.394;12.340;2023-07-29T07:54:22;4.45;;;3.60;;
23300;SDS011;11819;51.394;12.340;2023-07-29T07:56:48;5.60;;;3.70;;
23300;SDS011;11819;51.394;12.340;2023-07-29T07:59:14;4.75;;;3.55;;
23300;SDS011;11819;51.394;12.340;2023-07-29T08:01:40;4.40;;;3.53;;
23300;SDS011;11819;51.394;12.340;2023-07-29T08:04:06;4.90;;;3.58;;
23300;SDS011;11819;51.394;12.340;2023-07-29T08:06:32;4.07;;;3.35;;
23300;SDS011;11819;51.394;12.340;2023-07-29T08:08:58;4.68;;;3.78;;
23300;SDS011;11819;51.394;12.340;2023-07-29T08:11:25;4.13;;;3.60;;
23300;SDS011;11819;51.394;12.340;2023-07-29T08:13:51;5.75;;;3.80;;
23300;SDS011;11819;51.394;12.340;2023-07-29T08:16:17;5.35;;;3.67;;
23300;SDS011;11819;51.394;12.340;2023-07-29T08:18:43;6.10;;;4.95;;
23300;SDS011;11819;51.394;12.340;2023-07-29T08:21:09;5.57;;;3.80;;
23300;SDS011;11819;51.394;12.340;2023-07-29T08:23:36;5.47;;;3.60;;
23300;SDS011;11819;51.394;12.340;2023-07-29T08:26:03;5.07;;;3.75;;
23300;SDS011;11819;51.394;12.340;2023-07-29T08:28:32;5.72;;;3.80;;
23300;SDS011;11819;51.394;12.340;2023-07-29T08:31:02;4.55;;;3.15;;
23300;SDS011;11819;51.394;12.340;2023-07-29T08:33:32;4.15;;;3.17;;
23300;SDS011;11819;51.394;12.340;2023-07-29T08:35:58;3.58;;;2.83;;
23300;SDS011;11819;51.394;12.340;2023-07-29T08:38:24;4.13;;;3.22;;
23300;SDS011;11819;51.394;12.340;2023-07-29T08:43:19;4.93;;;3.33;;
23300;SDS011;11819;51.394;12.340;2023-07-29T08:45:46;4.45;;;3.67;;
23300;SDS011;11819;51.394;12.340;2023-07-29T08:51:07;5.70;;;3.95;;
23300;SDS011;11819;51.394;12.340;2023-07-29T08:53:37;4.35;;;3.72;;
23300;SDS011;11819;51.394;12.340;2023-07-29T08:56:04;4.35;;;3.15;;
23300;SDS011;11819;51.394;12.340;2023-07-29T08:58:37;4.65;;;3.45;;
23300;SDS011;11819;51.394;12.340;2023-07-29T09:01:05;4.65;;;3.20;;
23300;SDS011;11819;51.394;12.340;2023-07-29T09:03:42;4.85;;;3.42;;
23300;SDS011;11819;51.394;12.340;2023-07-29T09:06:08;4.88;;;3.67;;
23300;SDS011;11819;51.394;12.340;2023-07-29T09:08:34;3.80;;;3.35;;
23300;SDS011;11819;51.394;12.340;2023-07-29T09:11:00;3.97;;;3.10;;
23300;SDS011;11819;51.394;12.340;2023-07-29T09:13:27;3.80;;;3.15;;
23300;SDS011;11819;51.394;12.340;2023-07-29T09:15:54;3.70;;;3.00;;
23300;SDS011;11819;51.394;12.340;2023-07-29T09:18:23;4.53;;;3.17;;
23300;SDS011;11819;51.394;12.340;2023-07-29T09:20:51;4.13;;;3.03;;
23300;SDS011;11819;51.394;12.340;2023-07-29T09:23:18;4.88;;;3.03;;
23300;SDS011;11819;51.394;12.340;2023-07-29T09:28:26;3.53;;;2.63;;
23300;SDS011;11819;51.394;12.340;2023-07-29T09:30:52;3.03;;;2.55;;
23300;SDS011;11819;51.394;12.340;2023-07-29T09:33:19;2.88;;;2.10;;
23300;SDS011;11819;51.394;12.340;2023-07-29T09:35:45;3.17;;;2.33;;
23300;SDS011;11819;51.394;12.340;2023-07-29T09:38:13;2.25;;;2.00;;
23300;SDS011;11819;51.394;12.340;2023-07-29T09:40:40;2.90;;;2.25;;
23300;SDS011;11819;51.394;12.340;2023-07-29T09:43:09;3.03;;;2.20;;
23300;SDS011;11819;51.394;12.340;2023-07-29T09:45:35;2.28;;;2.08;;
23300;SDS011;11819;51.394;12.340;2023-07-29T09:48:01;2.72;;;2.40;;
23300;SDS011;11819;51.394;12.340;2023-07-29T09:50:29;2.72;;;2.22;;
23300;SDS011;11819;51.394;12.340;2023-07-29T09:52:55;2.45;;;2.25;;
23300;SDS011;11819;51.394;12.340;2023-07-29T09:55:24;2.42;;;2.17;;
23300;SDS011;11819;51.394;12.340;2023-07-29T09:57:53;2.67;;;2.20;;
23300;SDS011;11819;51.394;12.340;2023-07-29T10:00:22;2.70;;;2.08;;
23300;SDS011;11819;51.394;12.340;2023-07-29T10:02:49;2.85;;;2.42;;
23300;SDS011;11819;51.394;12.340;2023-07-29T10:05:15;3.38;;;2.30;;
23300;SDS011;11819;51.394;12.340;2023-07-29T10:07:41;2.42;;;2.00;;
23300;SDS011;11819;51.394;12.340;2023-07-29T10:10:07;2.50;;;2.10;;
23300;SDS011;11819;51.394;12.340;2023-07-29T10:12:34;3.33;;;2.20;;
23300;SDS011;11819;51.394;12.340;2023-07-29T10:15:02;2.40;;;2.20;;
23300;SDS011;11819;51.394;12.340;2023-07-29T10:17:29;4.15;;;2.10;;
23300;SDS011;11819;51.394;12.340;2023-07-29T10:22:40;2.63;;;2.10;;
23300;SDS011;11819;51.394;12.340;2023-07-29T10:25:17;3.25;;;2.00;;
23300;SDS011;11819;51.394;12.340;2023-07-29T10:30:19;3.00;;;2.20;;
23300;SDS011;11819;51.394;12.340;2023-07-29T10:32:53;2.40;;;2.00;;
23300;SDS011;11819;51.394;12.340;2023-07-29T10:35:23;2.80;;;2.30;;
23300;SDS011;11819;51.394;12.340;2023-07-29T10:37:50;3.63;;;2.25;;
23300;SDS011;11819;51.394;12.340;2023-07-29T10:40:20;2.30;;;2.10;;
23300;SDS011;11819;51.394;12.340;2023-07-29T10:43:32;2.70;;;2.20;;
23300;SDS011;11819;51.394;12.340;2023-07-29T10:45:38;2.58;;;2.05;;
23300;SDS011;11819;51.394;12.340;2023-07-29T10:48:39;2.35;;;1.83;;
23300;SDS011;11819;51.394;12.340;2023-07-29T10:54:03;2.72;;;2.00;;
23300;SDS011;11819;51.394;12.340;2023-07-29T10:56:35;4.65;;;1.90;;
23300;SDS011;11819;51.394;12.340;2023-07-29T10:59:22;2.75;;;2.30;;
23300;SDS011;11819;51.394;12.340;2023-07-29T11:02:17;3.78;;;2.40;;
23300;SDS011;11819;51.394;12.340;2023-07-29T11:04:47;3.08;;;2.10;;
23300;SDS011;11819;51.394;12.340;2023-07-29T11:09:54;5.10;;;2.45;;
23300;SDS011;11819;51.394;12.340;2023-07-29T11:15:26;3.88;;;2.70;;
23300;SDS011;11819;51.394;12.340;2023-07-29T11:17:54;2.67;;;2.47;;
23300;SDS011;11819;51.394;12.340;2023-07-29T11:22:55;3.75;;;2.97;;
23300;SDS011;11819;51.394;12.340;2023-07-29T11:25:27;3.70;;;2.67;;
23300;SDS011;11819;51.394;12.340;2023-07-29T11:27:55;3.00;;;2.40;;
23300;SDS011;11819;51.394;12.340;2023-07-29T11:30:22;2.75;;;2.28;;
23300;SDS011;11819;51.394;12.340;2023-07-29T11:32:48;3.30;;;2.42;;
23300;SDS011;11819;51.394;12.340;2023-07-29T11:35:15;3.20;;;2.45;;
23300;SDS011;11819;51.394;12.340;2023-07-29T11:37:43;4.57;;;2.47;;
23300;SDS011;11819;51.394;12.340;2023-07-29T11:40:13;3.75;;;2.45;;
23300;SDS011;11819;51.394;12.340;2023-07-29T11:42:43;3.38;;;2.53;;
23300;SDS011;11819;51.394;12.340;2023-07-29T11:45:10;3.85;;;2.63;;
23300;SDS011;11819;51.394;12.340;2023-07-29T11:47:39;4.18;;;2.60;;
23300;SDS011;11819;51.394;12.340;2023-07-29T11:50:06;3.85;;;2.78;;
23300;SDS011;11819;51.394;12.340;2023-07-29T11:52:34;3.78;;;2.60;;
23300;SDS011;11819;51.394;12.340;2023-07-29T11:55:04;3.13;;;2.63;;
23300;SDS011;11819;51.394;12.340;2023-07-29T11:57:31;3.60;;;2.75;;
23300;SDS011;11819;51.394;12.340;2023-07-29T11:59:59;4.80;;;3.10;;
23300;SDS011;11819;51.394;12.340;2023-07-29T12:02:34;3.28;;;2.70;;
23300;SDS011;11819;51.394;12.340;2023-07-29T12:05:02;5.30;;;2.80;;
23300;SDS011;11819;51.394;12.340;2023-07-29T12:07:29;3.70;;;2.88;;
23300;SDS011;11819;51.394;12.340;2023-07-29T12:09:56;3.78;;;2.90;;
23300;SDS011;11819;51.394;12.340;2023-07-29T12:12:22;3.95;;;3.00;;
23300;SDS011;11819;51.394;12.340;2023-07-29T12:14:48;4.30;;;2.85;;
23300;SDS011;11819;51.394;12.340;2023-07-29T12:17:14;5.75;;;2.92;;
23300;SDS011;11819;51.394;12.340;2023-07-29T12:19:40;4.45;;;2.53;;
23300;SDS011;11819;51.394;12.340;2023-07-29T12:22:08;4.10;;;2.83;;
23300;SDS011;11819;51.394;12.340;2023-07-29T12:24:38;3.45;;;2.80;;
23300;SDS011;11819;51.394;12.340;2023-07-29T12:27:06;4.13;;;2.72;;
23300;SDS011;11819;51.394;12.340;2023-07-29T12:29:40;3.53;;;2.78;;
23300;SDS011;11819;51.394;12.340;2023-07-29T12:32:06;4.97;;;2.90;;
23300;SDS011;11819;51.394;12.340;2023-07-29T12:34:34;3.55;;;2.67;;
23300;SDS011;11819;51.394;12.340;2023-07-29T12:37:04;3.67;;;2.72;;
23300;SDS011;11819;51.394;12.340;2023-07-29T12:39:31;3.75;;;2.88;;
23300;SDS011;11819;51.394;12.340;2023-07-29T12:41:59;4.43;;;2.60;;
23300;SDS011;11819;51.394;12.340;2023-07-29T12:44:29;3.78;;;2.83;;
23300;SDS011;11819;51.394;12.340;2023-07-29T12:46:56;2.97;;;2.45;;
23300;SDS011;11819;51.394;12.340;2023-07-29T12:49:22;4.00;;;2.72;;
23300;SDS011;11819;51.394;12.340;2023-07-29T12:51:48;4.03;;;2.63;;
23300;SDS011;11819;51.394;12.340;2023-07-29T12:54:13;3.25;;;2.63;;
23300;SDS011;11819;51.394;12.340;2023-07-29T12:56:39;3.83;;;2.88;;
23300;SDS011;11819;51.394;12.340;2023-07-29T12:59:05;2.72;;;2.30;;
23300;SDS011;11819;51.394;12.340;2023-07-29T13:01:32;3.58;;;2.70;;
23300;SDS011;11819;51.394;12.340;2023-07-29T13:03:58;4.03;;;2.50;;
23300;SDS011;11819;51.394;12.340;2023-07-29T13:06:23;3.55;;;2.67;;
23300;SDS011;11819;51.394;12.340;2023-07-29T13:08:50;2.75;;;2.42;;
23300;SDS011;11819;51.394;12.340;2023-07-29T13:11:17;2.90;;;2.30;;
23300;SDS011;11819;51.394;12.340;2023-07-29T13:13:43;2.97;;;2.47;;
23300;SDS011;11819;51.394;12.340;2023-07-29T13:16:12;2.65;;;2.20;;
23300;SDS011;11819;51.394;12.340;2023-07-29T13:18:38;3.25;;;2.15;;
23300;SDS011;11819;51.394;12.340;2023-07-29T13:21:04;2.97;;;2.33;;
23300;SDS011;11819;51.394;12.340;2023-07-29T13:23:30;2.78;;;2.10;;
23300;SDS011;11819;51.394;12.340;2023-07-29T13:25:56;2.92;;;2.30;;
23300;SDS011;11819;51.394;12.340;2023-07-29T13:28:24;3.20;;;2.10;;
23300;SDS011;11819;51.394;12.340;2023-07-29T13:30:50;4.10;;;2.53;;
23300;SDS011;11819;51.394;12.340;2023-07-29T13:33:21;2.97;;;2.67;;
23300;SDS011;11819;51.394;12.340;2023-07-29T13:35:58;2.63;;;2.40;;
23300;SDS011;11819;51.394;12.340;2023-07-29T13:38:24;3.70;;;2.58;;
23300;SDS011;11819;51.394;12.340;2023-07-29T13:40:50;3.25;;;2.33;;
23300;SDS011;11819;51.394;12.340;2023-07-29T13:43:16;3.42;;;2.40;;
23300;SDS011;11819;51.394;12.340;2023-07-29T13:45:42;4.10;;;2.63;;
23300;SDS011;11819;51.394;12.340;2023-07-29T13:48:07;3.70;;;2.30;;
23300;SDS011;11819;51.394;12.340;2023-07-29T13:50:33;3.17;;;2.47;;
23300;SDS011;11819;51.394;12.340;2023-07-29T13:52:58;2.78;;;2.38;;
23300;SDS011;11819;51.394;12.340;2023-07-29T13:55:25;3.40;;;2.70;;
23300;SDS011;11819;51.394;12.340;2023-07-29T13:57:51;3.50;;;2.60;;
23300;SDS011;11819;51.394;12.340;2023-07-29T14:00:18;5.03;;;2.88;;
23300;SDS011;11819;51.394;12.340;2023-07-29T14:02:48;4.03;;;2.70;;
23300;SDS011;11819;51.394;12.340;2023-07-29T14:05:13;3.40;;;2.65;;
23300;SDS011;11819;51.394;12.340;2023-07-29T14:07:39;3.90;;;2.70;;
23300;SDS011;11819;51.394;12.340;2023-07-29T14:10:12;3.05;;;2.42;;
23300;SDS011;11819;51.394;12.340;2023-07-29T14:12:37;3.53;;;2.67;;
23300;SDS011;11819;51.394;12.340;2023-07-29T14:15:04;4.55;;;2.72;;
23300;SDS011;11819;51.394;12.340;2023-07-29T14:17:31;3.00;;;2.35;;
23300;SDS011;11819;51.394;12.340;2023-07-29T14:19:56;3.60;;;2.65;;
23300;SDS011;11819;51.394;12.340;2023-07-29T14:22:22;2.95;;;2.05;;
23300;SDS011;11819;51.394;12.340;2023-07-29T14:24:47;4.18;;;2.42;;
23300;SDS011;11819;51.394;12.340;2023-07-29T14:27:14;3.65;;;2.70;;
23300;SDS011;11819;51.394;12.340;2023-07-29T14:29:41;4.90;;;3.08;;
23300;SDS011;11819;51.394;12.340;2023-07-29T14:32:07;3.47;;;3.03;;
23300;SDS011;11819;51.394;12.340;2023-07-29T14:34:36;4.13;;;2.78;;
23300;SDS011;11819;51.394;12.340;2023-07-29T14:37:01;3.88;;;2.90;;
23300;SDS011;11819;51.394;12.340;2023-07-29T14:39:27;4.95;;;2.78;;
23300;SDS011;11819;51.394;12.340;2023-07-29T14:41:52;3.20;;;2.50;;
23300;SDS011;11819;51.394;12.340;2023-07-29T14:44:18;4.75;;;2.70;;
23300;SDS011;11819;51.394;12.340;2023-07-29T14:46:44;4.97;;;3.15;;
23300;SDS011;11819;51.394;12.340;2023-07-29T14:49:09;4.65;;;3.08;;
23300;SDS011;11819;51.394;12.340;2023-07-29T14:51:37;3.58;;;2.70;;
23300;SDS011;11819;51.394;12.340;2023-07-29T14:54:03;3.97;;;2.75;;
23300;SDS011;11819;51.394;12.340;2023-07-29T14:56:28;5.03;;;2.70;;
23300;SDS011;11819;51.394;12.340;2023-07-29T14:58:54;4.05;;;2.78;;
23300;SDS011;11819;51.394;12.340;2023-07-29T15:01:21;3.95;;;2.60;;
23300;SDS011;11819;51.394;12.340;2023-07-29T15:03:46;4.38;;;3.00;;
23300;SDS011;11819;51.394;12.340;2023-07-29T15:06:12;4.75;;;2.60;;